Custer, WA (98240)

7:37 AM PDT on July 23, 2016 (GMT -0700)
Dakota Creek Farm | | Change Station

Elev 141 ft 48.97 °N, 122.63 °W | Updated 5 seconds ago

Scattered Clouds
Scattered Clouds
54.3 °F
Feels Like 54.3 °F
N
2.0
Wind Variable Wind from SSW
Gusts 4.0 mph

Today
High -- | Low -- °F
--% Chance of Precip.
Yesterday
High -- | Low -- °F
Precip. -- in
Pressure 30.26 in
Visibility 10.0 miles
Clouds Few 500 ft
Scattered Clouds 4600 ft
Dew Point 53 °F
Humidity 95%
Rainfall 0.00 in
Snow Depth Not available.
5:32 AM 9:00 PM
Waning Gibbous, 85% visible
METAR KBLI 231353Z 17009KT 10SM FEW005 SCT046 15/12 A3024 RMK AO2 SLP245 T01500122
Pressure 30.26 in
Visibility 10.0 miles
Clouds Few 500 ft
Scattered Clouds 4600 ft
Dew Point 53 °F
Humidity 95%
Rainfall 0.00 in
Snow Depth Not available.
5:32 AM 9:00 PM
Waning Gibbous, 85% visible
METAR KBLI 231353Z 17009KT 10SM FEW005 SCT046 15/12 A3024 RMK AO2 SLP245 T01500122

10-Day Weather Forecast

Almanac

Astronomy

Jul. 23, 2016 Rise Set
Actual Time
Civil Twilight
Nautical Twilight
Astronomical Twilight
Moon
Length of Visible Light
Length of Day
Tomorrow will be .
, % of the Moon is Illuminated

Today's Extremes

State Highs State Lows

Community

WunderPhotos

Upload Photos

1,926,825 photos uploaded!

WunderBlog® & News

Nearby

Air Quality

  Air Quality AQ Index Pollutant
Not available.

Snow Depth

Station Depth Elevation

Earthquake Activity

City Distance Mag. Time & Date
Minimum magnitude displayed is 2.5.

Coastal Water Temperatures

Place Temperature

Stations

Nearby Weather Stations

Station Location Temp. Windchill Dew Point Humidity Wind Precip. Elev Updated Type
                   

Watches & Warnings

There are currently no watches in effect.